createdAt,value
2018-05-26T00:01:17.432Z,16.60
2018-05-26T00:03:50.762Z,16.50
2018-05-26T00:06:18.919Z,16.50
2018-05-26T00:08:46.623Z,16.50
2018-05-26T00:11:17.413Z,16.50
2018-05-26T00:13:45.095Z,16.50
2018-05-26T00:16:12.811Z,16.50
2018-05-26T00:18:41.315Z,16.50
2018-05-26T00:21:09.220Z,16.50
2018-05-26T00:23:56.483Z,16.50
2018-05-26T00:26:24.890Z,16.50
2018-05-26T00:28:52.424Z,16.50
2018-05-26T00:31:19.948Z,16.50
2018-05-26T00:33:48.969Z,16.40
2018-05-26T00:36:18.012Z,16.40
2018-05-26T00:38:45.732Z,16.40
2018-05-26T00:41:13.687Z,16.40
2018-05-26T00:43:41.416Z,16.40
2018-05-26T00:46:08.905Z,16.40
2018-05-26T00:51:09.012Z,16.30
2018-05-26T00:53:40.603Z,16.30
2018-05-26T00:56:08.295Z,16.30
2018-05-26T00:58:35.975Z,16.30
2018-05-26T01:01:03.476Z,16.30
2018-05-26T01:03:30.982Z,16.30
2018-05-26T01:05:58.459Z,16.30
2018-05-26T01:08:25.999Z,16.30
2018-05-26T01:10:53.682Z,16.20
2018-05-26T01:13:21.195Z,16.20
2018-05-26T01:15:49.068Z,16.20
2018-05-26T01:18:16.788Z,16.20
2018-05-26T01:20:45.081Z,16.10
2018-05-26T01:23:13.024Z,16.10
2018-05-26T01:25:40.765Z,16.10
2018-05-26T01:28:08.330Z,16.10
2018-05-26T01:30:35.822Z,16.10
2018-05-26T01:33:03.332Z,16.10
2018-05-26T01:35:31.026Z,16.10
2018-05-26T01:37:58.808Z,16.10
2018-05-26T01:40:26.547Z,16.10
2018-05-26T01:42:58.067Z,16.10
2018-05-26T01:45:25.569Z,16.10
2018-05-26T01:47:53.054Z,16.10
2018-05-26T01:50:21.363Z,16.00
2018-05-26T01:52:48.921Z,16.10
2018-05-26T01:55:16.417Z,16.10
2018-05-26T01:57:43.919Z,16.00
2018-05-26T02:00:11.402Z,16.00
2018-05-26T02:02:46.567Z,16.00
2018-05-26T02:05:14.475Z,16.00
2018-05-26T02:07:43.410Z,16.00
2018-05-26T02:10:10.945Z,16.00
2018-05-26T02:12:38.607Z,16.00
2018-05-26T02:15:06.112Z,15.90
2018-05-26T02:17:33.915Z,15.90
2018-05-26T02:20:01.389Z,15.90
2018-05-26T02:22:29.148Z,15.90
2018-05-26T02:24:56.682Z,15.90
2018-05-26T02:27:24.960Z,15.80
2018-05-26T02:29:53.232Z,15.80
2018-05-26T02:32:21.478Z,15.80
2018-05-26T02:34:48.964Z,15.90
2018-05-26T02:37:17.235Z,15.80
2018-05-26T02:39:46.868Z,15.80
2018-05-26T02:42:14.345Z,15.80
2018-05-26T02:44:41.846Z,15.80
2018-05-26T02:47:09.436Z,15.80
2018-05-26T02:49:36.831Z,15.80
2018-05-26T02:52:04.311Z,15.80
2018-05-26T02:54:31.828Z,15.80
2018-05-26T02:56:59.380Z,15.80
2018-05-26T02:59:26.883Z,15.80
2018-05-26T03:01:54.504Z,15.80
2018-05-26T03:04:27.579Z,15.80
2018-05-26T03:07:00.715Z,15.80
2018-05-26T03:09:33.814Z,15.90
2018-05-26T03:12:06.947Z,15.90
2018-05-26T03:14:40.091Z,15.90
2018-05-26T03:17:07.652Z,15.90
2018-05-26T03:19:35.146Z,15.90
2018-05-26T03:22:03.384Z,15.90
2018-05-26T03:24:30.908Z,15.90
2018-05-26T03:26:58.379Z,15.90
2018-05-26T03:29:25.846Z,15.90
2018-05-26T03:31:53.314Z,15.90
2018-05-26T03:34:20.774Z,15.90
2018-05-26T03:36:48.310Z,15.90
2018-05-26T03:39:15.782Z,15.90
2018-05-26T03:41:43.259Z,15.90
2018-05-26T03:44:10.727Z,15.90
2018-05-26T03:46:38.219Z,15.90
2018-05-26T03:49:05.700Z,15.90
2018-05-26T03:51:33.198Z,15.90
2018-05-26T03:54:01.438Z,16.00
2018-05-26T03:56:40.776Z,16.00
2018-05-26T03:59:18.879Z,16.00
2018-05-26T04:01:46.371Z,16.00
2018-05-26T04:04:14.658Z,16.10
2018-05-26T04:06:43.135Z,16.10
2018-05-26T04:09:11.800Z,16.10
2018-05-26T04:11:39.271Z,16.10
2018-05-26T04:14:07.512Z,16.20
2018-05-26T04:16:34.977Z,16.10
2018-05-26T04:19:02.463Z,16.20
2018-05-26T04:21:30.704Z,16.20
2018-05-26T04:23:58.882Z,16.20
2018-05-26T04:26:26.360Z,16.20
2018-05-26T04:28:53.837Z,16.20
2018-05-26T04:31:21.331Z,16.30
2018-05-26T04:33:48.831Z,16.30
2018-05-26T04:36:16.318Z,16.30
2018-05-26T04:38:43.793Z,16.30
2018-05-26T04:41:11.298Z,16.30
2018-05-26T04:43:38.940Z,16.40
2018-05-26T04:46:06.718Z,16.40
2018-05-26T04:48:34.196Z,16.50
2018-05-26T04:51:01.760Z,16.50
2018-05-26T04:53:29.999Z,16.70
2018-05-26T04:55:57.482Z,16.70
2018-05-26T04:58:25.723Z,16.90
2018-05-26T05:00:53.223Z,16.90
2018-05-26T05:03:22.291Z,17.10
2018-05-26T05:05:49.762Z,17.10
2018-05-26T05:08:17.264Z,17.20
2018-05-26T05:10:45.567Z,17.20
2018-05-26T05:13:18.268Z,17.30
2018-05-26T05:15:45.758Z,17.40
2018-05-26T05:18:14.004Z,17.50
2018-05-26T05:20:41.560Z,17.50
2018-05-26T05:23:39.934Z,17.60
2018-05-26T05:26:08.221Z,17.70
2018-05-26T05:28:35.685Z,17.80
2018-05-26T05:31:03.158Z,17.90
2018-05-26T05:33:30.646Z,18.10
2018-05-26T05:35:58.175Z,18.10
2018-05-26T05:38:26.864Z,18.20
2018-05-26T05:40:55.113Z,18.30
2018-05-26T05:43:22.595Z,18.30
2018-05-26T05:45:50.852Z,18.50
2018-05-26T05:48:18.875Z,18.50
2018-05-26T05:50:46.380Z,18.60
2018-05-26T05:53:14.351Z,18.80
2018-05-26T05:55:41.848Z,18.90
2018-05-26T05:58:09.317Z,19.00
2018-05-26T06:00:36.792Z,19.10
2018-05-26T06:03:04.278Z,19.20
2018-05-26T06:05:33.379Z,19.40
2018-05-26T06:08:00.878Z,19.30
2018-05-26T06:10:28.345Z,19.40
2018-05-26T06:12:55.997Z,19.40
2018-05-26T06:15:23.534Z,19.50
2018-05-26T06:17:50.975Z,19.50
2018-05-26T06:20:19.219Z,19.60
2018-05-26T06:22:46.707Z,19.60
2018-05-26T06:25:14.955Z,19.70
2018-05-26T06:27:42.457Z,19.80
2018-05-26T06:30:10.735Z,19.90
2018-05-26T06:32:38.959Z,19.90
2018-05-26T06:35:06.451Z,19.90
2018-05-26T06:37:34.692Z,20.00
2018-05-26T06:40:02.160Z,20.00
2018-05-26T06:42:29.689Z,20.10
2018-05-26T06:44:57.167Z,20.20
2018-05-26T06:47:24.837Z,20.30
2018-05-26T06:49:52.609Z,20.40
2018-05-26T06:52:20.200Z,20.40
2018-05-26T06:54:48.435Z,20.60
2018-05-26T06:57:15.968Z,20.50
2018-05-26T06:59:43.443Z,20.60
2018-05-26T07:02:10.915Z,20.70
2018-05-26T07:04:38.472Z,20.80
2018-05-26T07:07:05.972Z,20.90
2018-05-26T07:09:34.271Z,21.00
2018-05-26T07:12:01.930Z,21.00
2018-05-26T07:14:29.423Z,21.10
2018-05-26T07:16:56.909Z,21.10
2018-05-26T07:19:25.150Z,21.10
2018-05-26T07:21:52.683Z,21.00
2018-05-26T07:24:20.271Z,21.00
2018-05-26T07:26:47.731Z,21.00
2018-05-26T07:29:15.205Z,21.10
2018-05-26T07:31:42.863Z,21.10
2018-05-26T07:34:10.342Z,21.10
2018-05-26T07:36:38.595Z,20.90
2018-05-26T07:39:06.068Z,20.90
2018-05-26T07:41:34.303Z,20.80
2018-05-26T07:44:01.853Z,20.70
2018-05-26T07:46:29.334Z,20.70
2018-05-26T07:48:56.991Z,20.80
2018-05-26T07:51:24.475Z,20.80
2018-05-26T07:53:52.716Z,20.80
2018-05-26T07:56:20.300Z,20.80
2018-05-26T07:58:47.782Z,20.80
2018-05-26T08:01:16.049Z,21.00
2018-05-26T08:03:43.528Z,21.00
2018-05-26T08:06:11.054Z,21.30
2018-05-26T08:08:39.311Z,21.40
2018-05-26T08:11:06.788Z,21.40
2018-05-26T08:13:35.200Z,21.40
2018-05-26T08:16:02.691Z,21.40
2018-05-26T08:18:33.516Z,21.60
2018-05-26T08:21:01.081Z,21.80
2018-05-26T08:23:28.656Z,22.10
2018-05-26T08:25:56.744Z,22.20
2018-05-26T08:28:25.011Z,22.20
2018-05-26T08:30:52.511Z,22.20
2018-05-26T08:33:25.499Z,22.10
2018-05-26T08:38:31.792Z,21.80
2018-05-26T08:41:01.498Z,21.10
2018-05-26T08:43:32.951Z,20.60
2018-05-26T08:51:11.726Z,20.60
2018-05-26T08:53:46.271Z,20.90
2018-05-26T09:23:30.150Z,22.00
2018-05-26T09:29:36.629Z,22.10
2018-05-26T09:45:57.368Z,22.80
2018-05-26T09:54:48.647Z,23.00
2018-05-26T09:57:26.036Z,23.00
2018-05-26T10:02:34.619Z,23.00
2018-05-26T11:51:59.449Z,25.60
2018-05-26T12:11:24.584Z,25.70
2018-05-26T12:45:31.070Z,26.90
2018-05-26T13:15:42.580Z,27.20
2018-05-26T13:31:05.972Z,27.00
2018-05-26T13:34:02.495Z,26.70
2018-05-26T13:41:38.307Z,25.20
2018-05-26T13:46:46.956Z,25.00
2018-05-26T13:49:15.847Z,25.00
2018-05-26T13:51:44.874Z,25.10
2018-05-26T13:54:18.438Z,25.30
2018-05-26T14:02:00.483Z,25.90
2018-05-26T14:04:28.530Z,26.00
2018-05-26T14:12:01.728Z,26.60
2018-05-26T14:14:30.700Z,26.80
2018-05-26T14:17:00.333Z,26.80
2018-05-26T14:19:29.705Z,26.70
2018-05-26T14:24:38.048Z,26.50
2018-05-26T14:39:51.183Z,25.90
2018-05-26T16:38:04.644Z,23.40
2018-05-26T17:16:37.558Z,22.90
2018-05-26T20:03:16.685Z,18.70
2018-05-26T20:22:11.900Z,18.40
2018-05-26T20:30:50.338Z,18.20
2018-05-26T20:40:23.154Z,17.90
2018-05-26T20:45:41.871Z,17.90
2018-05-26T20:48:47.866Z,17.80
2018-05-26T20:51:19.083Z,17.80
2018-05-26T20:57:22.363Z,17.70
2018-05-26T20:59:55.771Z,17.60
2018-05-26T21:02:36.245Z,17.60
2018-05-26T21:13:21.648Z,17.50
2018-05-26T21:23:11.924Z,17.40
2018-05-26T21:29:03.115Z,17.30
2018-05-26T21:34:45.301Z,17.20
2018-05-26T21:39:59.822Z,17.20
2018-05-26T21:58:30.075Z,17.00
2018-05-26T22:00:59.076Z,16.90
2018-05-26T22:03:35.193Z,16.90
2018-05-26T22:06:09.276Z,16.90
2018-05-26T22:08:44.055Z,16.90
2018-05-26T22:11:12.914Z,16.80
2018-05-26T22:16:28.859Z,16.80
2018-05-26T22:22:28.088Z,16.80
2018-05-26T22:27:47.889Z,16.70
2018-05-26T22:33:28.801Z,16.70
2018-05-26T22:36:00.419Z,16.60
2018-05-26T22:38:29.451Z,16.60
2018-05-26T22:44:07.744Z,16.50
2018-05-26T22:49:12.561Z,16.50
2018-05-26T22:51:40.442Z,16.40
2018-05-26T22:54:08.423Z,16.40
2018-05-26T22:56:41.749Z,16.40
2018-05-26T22:59:11.585Z,16.30
2018-05-26T23:04:12.535Z,16.30
2018-05-26T23:06:42.156Z,16.30
2018-05-26T23:09:09.710Z,16.30
2018-05-26T23:14:19.662Z,16.30
2018-05-26T23:19:21.469Z,16.30
2018-05-26T23:21:50.164Z,16.30
2018-05-26T23:24:21.980Z,16.20
2018-05-26T23:26:51.026Z,16.20
2018-05-26T23:29:18.508Z,16.20
2018-05-26T23:31:46.015Z,16.20
2018-05-26T23:34:16.422Z,16.20
2018-05-26T23:36:44.573Z,16.20
2018-05-26T23:39:13.845Z,16.20
2018-05-26T23:41:41.784Z,16.20
2018-05-26T23:44:10.645Z,16.20
2018-05-26T23:46:38.375Z,16.10
2018-05-26T23:49:10.043Z,16.10
2018-05-26T23:51:38.548Z,16.10
2018-05-26T23:54:06.056Z,16.10
2018-05-26T23:56:36.914Z,16.10
2018-05-26T23:59:05.215Z,16.10
